sensor_id;sensor_type;location;lat;lon;timestamp;pressure;altitude;pressure_sealevel;temperature;humidity
20455;BME280;10386;54.314;10.022;2022-09-09T00:00:49;99388.06;;;14.92;100.00
20455;BME280;10386;54.314;10.022;2022-09-09T00:03:26;99385.53;;;14.90;100.00
20455;BME280;10386;54.314;10.022;2022-09-09T00:11:24;99382.28;;;14.95;100.00
20455;BME280;10386;54.314;10.022;2022-09-09T00:13:58;99385.34;;;14.92;100.00
20455;BME280;10386;54.314;10.022;2022-09-09T00:16:28;99390.13;;;14.90;100.00
20455;BME280;10386;54.314;10.022;2022-09-09T00:24:43;99372.34;;;15.02;100.00
20455;BME280;10386;54.314;10.022;2022-09-09T00:30:31;99371.66;;;15.08;100.00
20455;BME280;10386;54.314;10.022;2022-09-09T00:33:08;99371.66;;;15.00;100.00
20455;BME280;10386;54.314;10.022;2022-09-09T00:35:42;99364.00;;;15.03;100.00
20455;BME280;10386;54.314;10.022;2022-09-09T00:38:14;99358.34;;;15.05;100.00
20455;BME280;10386;54.314;10.022;2022-09-09T00:43:30;99361.97;;;14.97;100.00
20455;BME280;10386;54.314;10.022;2022-09-09T00:48:37;99361.97;;;14.97;100.00
20455;BME280;10386;54.314;10.022;2022-09-09T00:57:31;99361.91;;;15.21;100.00
20455;BME280;10386;54.314;10.022;2022-09-09T01:00:21;99342.94;;;15.12;100.00
20455;BME280;10386;54.314;10.022;2022-09-09T01:02:58;99347.94;;;15.08;100.00
20455;BME280;10386;54.314;10.022;2022-09-09T01:08:11;99344.16;;;15.09;100.00
20455;BME280;10386;54.314;10.022;2022-09-09T01:10:53;99348.09;;;15.07;100.00
20455;BME280;10386;54.314;10.022;2022-09-09T01:13:24;99353.41;;;15.08;100.00
20455;BME280;10386;54.314;10.022;2022-09-09T01:15:53;99358.69;;;15.02;100.00
20455;BME280;10386;54.314;10.022;2022-09-09T01:18:30;99354.75;;;15.12;100.00
20455;BME280;10386;54.314;10.022;2022-09-09T01:24:08;99346.72;;;15.03;100.00
20455;BME280;10386;54.314;10.022;2022-09-09T01:26:42;99351.34;;;15.02;100.00
20455;BME280;10386;54.314;10.022;2022-09-09T01:29:12;99363.13;;;15.03;100.00
20455;BME280;10386;54.314;10.022;2022-09-09T01:31:56;99358.16;;;15.22;100.00
20455;BME280;10386;54.314;10.022;2022-09-09T01:34:27;99361.41;;;15.02;100.00
20455;BME280;10386;54.314;10.022;2022-09-09T01:37:08;99364.69;;;14.97;100.00
20455;BME280;10386;54.314;10.022;2022-09-09T01:39:39;99370.66;;;14.93;100.00
20455;BME280;10386;54.314;10.022;2022-09-09T01:42:09;99383.63;;;15.07;100.00
20455;BME280;10386;54.314;10.022;2022-09-09T01:44:37;99391.13;;;15.05;100.00
20455;BME280;10386;54.314;10.022;2022-09-09T01:47:04;99388.59;;;15.11;100.00
20455;BME280;10386;54.314;10.022;2022-09-09T01:49:32;99383.28;;;15.02;100.00
20455;BME280;10386;54.314;10.022;2022-09-09T01:51:59;99385.16;;;15.09;100.00
20455;BME280;10386;54.314;10.022;2022-09-09T01:54:28;99378.31;;;15.13;100.00
20455;BME280;10386;54.314;10.022;2022-09-09T02:05:24;99378.84;;;15.09;100.00
20455;BME280;10386;54.314;10.022;2022-09-09T02:08:07;99369.94;;;15.07;100.00
20455;BME280;10386;54.314;10.022;2022-09-09T02:10:43;99368.44;;;14.96;100.00
20455;BME280;10386;54.314;10.022;2022-09-09T02:13:14;99369.28;;;14.97;100.00
20455;BME280;10386;54.314;10.022;2022-09-09T02:18:30;99389.97;;;14.99;100.00
20455;BME280;10386;54.314;10.022;2022-09-09T02:20:59;99378.50;;;15.12;100.00
20455;BME280;10386;54.314;10.022;2022-09-09T02:23:27;99365.34;;;15.07;100.00
20455;BME280;10386;54.314;10.022;2022-09-09T02:25:57;99360.91;;;15.06;100.00
20455;BME280;10386;54.314;10.022;2022-09-09T02:28:26;99359.03;;;15.07;100.00
20455;BME280;10386;54.314;10.022;2022-09-09T02:30:56;99352.03;;;15.12;100.00
20455;BME280;10386;54.314;10.022;2022-09-09T02:33:27;99346.56;;;15.04;100.00
20455;BME280;10386;54.314;10.022;2022-09-09T02:35:56;99350.13;;;15.05;100.00
20455;BME280;10386;54.314;10.022;2022-09-09T02:38:29;99353.22;;;15.02;100.00
20455;BME280;10386;54.314;10.022;2022-09-09T02:40:58;99349.75;;;15.23;100.00
20455;BME280;10386;54.314;10.022;2022-09-09T02:43:25;99341.94;;;15.05;100.00
20455;BME280;10386;54.314;10.022;2022-09-09T02:45:59;99345.56;;;14.97;100.00
20455;BME280;10386;54.314;10.022;2022-09-09T02:48:51;99352.38;;;15.01;100.00
20455;BME280;10386;54.314;10.022;2022-09-09T02:51:24;99339.56;;;15.02;100.00
20455;BME280;10386;54.314;10.022;2022-09-09T02:54:09;99344.53;;;14.98;100.00
20455;BME280;10386;54.314;10.022;2022-09-09T02:56:41;99353.22;;;14.94;100.00
20455;BME280;10386;54.314;10.022;2022-09-09T02:59:08;99350.69;;;14.92;100.00
20455;BME280;10386;54.314;10.022;2022-09-09T03:01:36;99353.22;;;14.94;100.00
20455;BME280;10386;54.314;10.022;2022-09-09T03:04:03;99357.97;;;15.16;100.00
20455;BME280;10386;54.314;10.022;2022-09-09T03:06:31;99338.50;;;15.11;100.00
20455;BME280;10386;54.314;10.022;2022-09-09T03:08:58;99332.88;;;15.12;100.00
20455;BME280;10386;54.314;10.022;2022-09-09T03:11:27;99335.09;;;15.09;100.00
20455;BME280;10386;54.314;10.022;2022-09-09T03:13:54;99331.72;;;14.99;100.00
20455;BME280;10386;54.314;10.022;2022-09-09T03:16:25;99336.66;;;15.03;100.00
20455;BME280;10386;54.314;10.022;2022-09-09T03:18:52;99340.25;;;14.96;100.00
20455;BME280;10386;54.314;10.022;2022-09-09T03:21:19;99367.94;;;14.93;100.00
20455;BME280;10386;54.314;10.022;2022-09-09T03:23:46;99406.72;;;14.96;100.00
20455;BME280;10386;54.314;10.022;2022-09-09T03:26:13;99339.22;;;14.97;100.00
20455;BME280;10386;54.314;10.022;2022-09-09T03:28:42;99306.75;;;15.02;100.00
20455;BME280;10386;54.314;10.022;2022-09-09T03:31:09;99305.41;;;14.98;100.00
20455;BME280;10386;54.314;10.022;2022-09-09T03:33:39;99301.63;;;15.07;100.00
20455;BME280;10386;54.314;10.022;2022-09-09T03:36:07;99290.19;;;15.11;100.00
20455;BME280;10386;54.314;10.022;2022-09-09T03:38:37;99291.59;;;14.99;100.00
20455;BME280;10386;54.314;10.022;2022-09-09T03:41:04;99287.31;;;14.97;100.00
20455;BME280;10386;54.314;10.022;2022-09-09T03:43:33;99278.78;;;14.92;100.00
20455;BME280;10386;54.314;10.022;2022-09-09T03:46:00;99272.47;;;14.91;100.00
20455;BME280;10386;54.314;10.022;2022-09-09T03:48:27;99272.81;;;14.88;100.00
20455;BME280;10386;54.314;10.022;2022-09-09T03:50:55;99277.25;;;14.97;100.00
20455;BME280;10386;54.314;10.022;2022-09-09T03:53:27;99262.34;;;15.00;100.00
20455;BME280;10386;54.314;10.022;2022-09-09T03:55:55;99260.47;;;15.08;100.00
20455;BME280;10386;54.314;10.022;2022-09-09T03:58:23;99245.16;;;14.91;100.00
20455;BME280;10386;54.314;10.022;2022-09-09T04:01:10;99240.50;;;15.00;100.00
20455;BME280;10386;54.314;10.022;2022-09-09T04:03:37;99229.22;;;14.95;100.00
20455;BME280;10386;54.314;10.022;2022-09-09T04:06:05;99222.59;;;14.81;100.00
20455;BME280;10386;54.314;10.022;2022-09-09T04:08:34;99215.44;;;14.80;100.00
20455;BME280;10386;54.314;10.022;2022-09-09T04:11:02;99208.09;;;14.81;100.00
20455;BME280;10386;54.314;10.022;2022-09-09T04:13:34;99217.13;;;14.81;100.00
20455;BME280;10386;54.314;10.022;2022-09-09T04:16:02;99209.81;;;14.82;100.00
20455;BME280;10386;54.314;10.022;2022-09-09T04:18:30;99205.88;;;14.76;100.00
20455;BME280;10386;54.314;10.022;2022-09-09T04:20:57;99203.34;;;14.75;100.00
20455;BME280;10386;54.314;10.022;2022-09-09T04:23:26;99214.63;;;14.64;100.00
20455;BME280;10386;54.314;10.022;2022-09-09T04:25:56;99212.06;;;14.62;100.00
20455;BME280;10386;54.314;10.022;2022-09-09T04:28:26;99203.03;;;14.62;100.00
20455;BME280;10386;54.314;10.022;2022-09-09T04:30:53;99207.50;;;14.55;100.00
20455;BME280;10386;54.314;10.022;2022-09-09T04:33:21;99218.19;;;14.72;100.00
20455;BME280;10386;54.314;10.022;2022-09-09T04:35:51;99206.81;;;14.53;100.00
20455;BME280;10386;54.314;10.022;2022-09-09T04:38:20;99211.03;;;14.63;100.00
20455;BME280;10386;54.314;10.022;2022-09-09T04:40:50;99218.72;;;14.68;100.00
20455;BME280;10386;54.314;10.022;2022-09-09T04:43:18;99210.31;;;14.77;100.00
20455;BME280;10386;54.314;10.022;2022-09-09T04:45:49;99202.34;;;14.60;100.00
20455;BME280;10386;54.314;10.022;2022-09-09T04:48:17;99207.13;;;14.66;100.00
20455;BME280;10386;54.314;10.022;2022-09-09T04:50:44;99214.47;;;14.57;100.00
20455;BME280;10386;54.314;10.022;2022-09-09T04:53:10;99220.81;;;14.58;100.00
20455;BME280;10386;54.314;10.022;2022-09-09T04:55:37;99222.84;;;14.64;100.00
20455;BME280;10386;54.314;10.022;2022-09-09T04:58:05;99229.31;;;14.63;100.00
20455;BME280;10386;54.314;10.022;2022-09-09T05:00:33;99234.09;;;14.69;100.00
20455;BME280;10386;54.314;10.022;2022-09-09T05:03:03;99233.41;;;14.75;100.00
20455;BME280;10386;54.314;10.022;2022-09-09T05:05:32;99231.66;;;14.82;100.00
20455;BME280;10386;54.314;10.022;2022-09-09T05:08:06;99241.91;;;14.80;100.00
20455;BME280;10386;54.314;10.022;2022-09-09T05:10:38;99233.53;;;14.89;100.00
20455;BME280;10386;54.314;10.022;2022-09-09T05:13:05;99236.28;;;14.89;100.00
20455;BME280;10386;54.314;10.022;2022-09-09T05:15:33;99231.13;;;14.94;100.00
20455;BME280;10386;54.314;10.022;2022-09-09T05:18:01;99234.56;;;14.80;100.00
20455;BME280;10386;54.314;10.022;2022-09-09T05:20:32;99243.94;;;14.94;100.00
20455;BME280;10386;54.314;10.022;2022-09-09T05:22:59;99244.94;;;14.93;100.00
20455;BME280;10386;54.314;10.022;2022-09-09T05:25:26;99241.53;;;14.99;100.00
20455;BME280;10386;54.314;10.022;2022-09-09T05:27:53;99240.09;;;15.11;100.00
20455;BME280;10386;54.314;10.022;2022-09-09T05:30:21;99233.44;;;15.13;100.00
20455;BME280;10386;54.314;10.022;2022-09-09T05:32:49;99222.31;;;15.15;100.00
20455;BME280;10386;54.314;10.022;2022-09-09T05:35:16;99226.28;;;15.12;100.00
20455;BME280;10386;54.314;10.022;2022-09-09T05:37:45;99233.28;;;15.07;100.00
20455;BME280;10386;54.314;10.022;2022-09-09T05:40:12;99231.03;;;15.18;100.00
20455;BME280;10386;54.314;10.022;2022-09-09T05:42:40;99237.34;;;15.18;100.00
20455;BME280;10386;54.314;10.022;2022-09-09T05:45:08;99231.72;;;15.28;100.00
20455;BME280;10386;54.314;10.022;2022-09-09T05:47:36;99218.72;;;15.30;100.00
20455;BME280;10386;54.314;10.022;2022-09-09T05:50:04;99218.03;;;15.28;100.00
20455;BME280;10386;54.314;10.022;2022-09-09T05:52:31;99220.94;;;15.18;100.00
20455;BME280;10386;54.314;10.022;2022-09-09T05:54:58;99226.72;;;15.23;100.00
20455;BME280;10386;54.314;10.022;2022-09-09T05:57:25;99220.06;;;15.26;100.00
20455;BME280;10386;54.314;10.022;2022-09-09T05:59:52;99217.69;;;15.31;100.00
20455;BME280;10386;54.314;10.022;2022-09-09T06:02:20;99224.03;;;15.31;100.00
20455;BME280;10386;54.314;10.022;2022-09-09T06:04:47;99231.81;;;15.42;100.00
20455;BME280;10386;54.314;10.022;2022-09-09T06:07:14;99233.22;;;15.38;100.00
20455;BME280;10386;54.314;10.022;2022-09-09T06:09:41;99221.59;;;15.28;100.00
20455;BME280;10386;54.314;10.022;2022-09-09T06:12:08;99222.94;;;15.40;100.00
20455;BME280;10386;54.314;10.022;2022-09-09T06:14:35;99229.03;;;15.50;100.00
20455;BME280;10386;54.314;10.022;2022-09-09T06:17:03;99226.34;;;15.42;100.00
20455;BME280;10386;54.314;10.022;2022-09-09T06:19:31;99232.78;;;15.57;100.00
20455;BME280;10386;54.314;10.022;2022-09-09T06:21:58;99221.69;;;15.51;100.00
20455;BME280;10386;54.314;10.022;2022-09-09T06:24:25;99235.03;;;15.46;100.00
20455;BME280;10386;54.314;10.022;2022-09-09T06:26:51;99235.66;;;15.56;100.00
20455;BME280;10386;54.314;10.022;2022-09-09T06:29:18;99231.44;;;15.53;100.00
20455;BME280;10386;54.314;10.022;2022-09-09T06:31:45;99231.06;;;15.56;100.00
20455;BME280;10386;54.314;10.022;2022-09-09T06:34:12;99243.34;;;15.60;100.00
20455;BME280;10386;54.314;10.022;2022-09-09T06:36:39;99239.69;;;15.68;100.00
20455;BME280;10386;54.314;10.022;2022-09-09T06:39:07;99250.47;;;15.69;100.00
20455;BME280;10386;54.314;10.022;2022-09-09T06:41:41;99239.34;;;15.71;100.00
20455;BME280;10386;54.314;10.022;2022-09-09T06:44:09;99241.03;;;15.72;100.00
20455;BME280;10386;54.314;10.022;2022-09-09T06:46:38;99246.88;;;15.69;100.00
20455;BME280;10386;54.314;10.022;2022-09-09T06:49:08;99241.56;;;15.75;100.00
20455;BME280;10386;54.314;10.022;2022-09-09T06:51:36;99236.69;;;15.85;100.00
20455;BME280;10386;54.314;10.022;2022-09-09T06:54:04;99238.75;;;15.83;100.00
20455;BME280;10386;54.314;10.022;2022-09-09T06:56:33;99239.47;;;15.77;100.00
20455;BME280;10386;54.314;10.022;2022-09-09T06:59:02;99238.03;;;15.89;100.00
20455;BME280;10386;54.314;10.022;2022-09-09T07:01:35;99240.03;;;15.95;100.00
20455;BME280;10386;54.314;10.022;2022-09-09T07:04:03;99236.22;;;16.04;100.00
20455;BME280;10386;54.314;10.022;2022-09-09T07:06:37;99226.75;;;16.37;100.00
20455;BME280;10386;54.314;10.022;2022-09-09T07:09:09;99216.41;;;16.47;100.00
20455;BME280;10386;54.314;10.022;2022-09-09T07:11:44;99202.13;;;16.52;100.00
20455;BME280;10386;54.314;10.022;2022-09-09T07:14:12;99220.75;;;16.56;100.00
20455;BME280;10386;54.314;10.022;2022-09-09T07:16:41;99209.41;;;16.59;100.00
20455;BME280;10386;54.314;10.022;2022-09-09T07:19:08;99215.84;;;16.66;100.00
20455;BME280;10386;54.314;10.022;2022-09-09T07:21:36;99216.06;;;16.79;100.00
20455;BME280;10386;54.314;10.022;2022-09-09T07:24:03;99223.91;;;16.67;100.00
20455;BME280;10386;54.314;10.022;2022-09-09T07:26:34;99225.25;;;16.71;100.00
20455;BME280;10386;54.314;10.022;2022-09-09T07:29:01;99229.16;;;17.06;100.00
20455;BME280;10386;54.314;10.022;2022-09-09T07:31:33;99250.38;;;16.75;100.00
20455;BME280;10386;54.314;10.022;2022-09-09T07:34:01;99274.88;;;16.76;100.00
20455;BME280;10386;54.314;10.022;2022-09-09T07:36:36;99280.94;;;16.86;100.00
20455;BME280;10386;54.314;10.022;2022-09-09T07:39:09;99292.72;;;16.87;100.00
20455;BME280;10386;54.314;10.022;2022-09-09T07:41:42;99307.31;;;16.87;100.00
20455;BME280;10386;54.314;10.022;2022-09-09T07:44:13;99301.06;;;16.93;100.00
20455;BME280;10386;54.314;10.022;2022-09-09T07:46:40;99323.38;;;16.90;100.00
20455;BME280;10386;54.314;10.022;2022-09-09T07:49:09;99332.19;;;17.00;100.00
20455;BME280;10386;54.314;10.022;2022-09-09T07:51:44;99350.31;;;17.24;100.00
20455;BME280;10386;54.314;10.022;2022-09-09T07:54:13;99357.72;;;17.38;100.00
20455;BME280;10386;54.314;10.022;2022-09-09T07:56:41;99377.66;;;17.32;100.00
20455;BME280;10386;54.314;10.022;2022-09-09T07:59:09;99378.66;;;17.68;100.00
20455;BME280;10386;54.314;10.022;2022-09-09T08:01:42;99394.19;;;17.90;100.00
20455;BME280;10386;54.314;10.022;2022-09-09T08:04:12;99483.91;;;17.60;100.00
20455;BME280;10386;54.314;10.022;2022-09-09T08:07:03;99500.59;;;17.73;100.00
20455;BME280;10386;54.314;10.022;2022-09-09T08:09:30;99516.56;;;17.70;100.00
20455;BME280;10386;54.314;10.022;2022-09-09T08:11:59;99535.56;;;17.94;100.00
20455;BME280;10386;54.314;10.022;2022-09-09T08:14:28;99543.81;;;17.94;100.00
20455;BME280;10386;54.314;10.022;2022-09-09T08:16:56;99559.59;;;18.28;100.00
20455;BME280;10386;54.314;10.022;2022-09-09T08:19:23;99586.25;;;18.57;100.00
20455;BME280;10386;54.314;10.022;2022-09-09T08:21:50;99616.25;;;18.58;100.00
20455;BME280;10386;54.314;10.022;2022-09-09T08:24:17;99637.50;;;18.64;100.00
20455;BME280;10386;54.314;10.022;2022-09-09T08:26:47;99632.38;;;18.61;100.00
20455;BME280;10386;54.314;10.022;2022-09-09T08:29:18;99655.56;;;18.81;100.00
20455;BME280;10386;54.314;10.022;2022-09-09T08:31:51;99689.75;;;18.64;100.00
20455;BME280;10386;54.314;10.022;2022-09-09T08:34:19;99715.66;;;18.70;100.00
20455;BME280;10386;54.314;10.022;2022-09-09T08:36:49;99752.66;;;18.96;100.00
20455;BME280;10386;54.314;10.022;2022-09-09T08:39:19;99795.47;;;19.13;100.00
20455;BME280;10386;54.314;10.022;2022-09-09T08:52:57;100036.50;;;18.77;100.00
20455;BME280;10386;54.314;10.022;2022-09-09T08:55:54;100057.22;;;18.49;100.00
20455;BME280;10386;54.314;10.022;2022-09-09T08:58:30;100081.00;;;18.18;100.00
20455;BME280;10386;54.314;10.022;2022-09-09T09:01:02;100082.69;;;18.35;100.00
20455;BME280;10386;54.314;10.022;2022-09-09T09:09:42;100116.38;;;18.37;100.00
20455;BME280;10386;54.314;10.022;2022-09-09T09:12:19;100171.66;;;18.42;100.00
20455;BME280;10386;54.314;10.022;2022-09-09T09:14:47;100181.97;;;18.48;100.00
20455;BME280;10386;54.314;10.022;2022-09-09T09:17:18;100191.75;;;18.59;100.00
20455;BME280;10386;54.314;10.022;2022-09-09T09:19:47;100200.25;;;18.88;100.00
20455;BME280;10386;54.314;10.022;2022-09-09T09:24:56;100245.34;;;19.33;100.00
20455;BME280;10386;54.314;10.022;2022-09-09T09:27:32;100283.06;;;19.09;100.00
20455;BME280;10386;54.314;10.022;2022-09-09T09:30:05;100305.63;;;18.96;100.00
20455;BME280;10386;54.314;10.022;2022-09-09T09:33:05;100316.81;;;19.19;100.00
20455;BME280;10386;54.314;10.022;2022-09-09T09:35:33;100338.97;;;19.25;100.00
20455;BME280;10386;54.314;10.022;2022-09-09T09:41:03;100372.25;;;19.62;100.00
20455;BME280;10386;54.314;10.022;2022-09-09T09:43:35;100410.53;;;19.25;100.00
20455;BME280;10386;54.314;10.022;2022-09-09T09:46:19;100426.38;;;19.23;100.00
20455;BME280;10386;54.314;10.022;2022-09-09T09:49:03;100427.53;;;19.45;100.00
20455;BME280;10386;54.314;10.022;2022-09-09T09:51:33;100436.31;;;19.56;100.00
20455;BME280;10386;54.314;10.022;2022-09-09T09:56:40;100463.84;;;19.56;100.00
20455;BME280;10386;54.314;10.022;2022-09-09T10:02:19;100508.00;;;19.86;100.00
20455;BME280;10386;54.314;10.022;2022-09-09T10:04:47;100521.25;;;20.07;100.00
20455;BME280;10386;54.314;10.022;2022-09-09T10:07:19;100555.22;;;19.59;100.00
20455;BME280;10386;54.314;10.022;2022-09-09T10:09:52;100573.78;;;20.13;100.00
20455;BME280;10386;54.314;10.022;2022-09-09T10:18:24;100675.31;;;20.72;100.00
20455;BME280;10386;54.314;10.022;2022-09-09T10:21:30;100693.91;;;20.78;100.00
20455;BME280;10386;54.314;10.022;2022-09-09T10:24:31;100713.16;;;21.10;100.00
20455;BME280;10386;54.314;10.022;2022-09-09T10:32:28;100758.38;;;21.09;100.00
20455;BME280;10386;54.314;10.022;2022-09-09T10:46:01;100808.88;;;21.80;100.00
20455;BME280;10386;54.314;10.022;2022-09-09T10:48:41;100817.75;;;21.59;100.00
20455;BME280;10386;54.314;10.022;2022-09-09T10:56:37;100838.50;;;20.93;100.00
20455;BME280;10386;54.314;10.022;2022-09-09T10:59:12;100832.78;;;20.95;100.00
20455;BME280;10386;54.314;10.022;2022-09-09T11:04:48;100844.88;;;20.94;100.00
20455;BME280;10386;54.314;10.022;2022-09-09T11:07:26;100843.91;;;21.33;100.00
20455;BME280;10386;54.314;10.022;2022-09-09T11:10:01;100835.53;;;21.57;100.00
20455;BME280;10386;54.314;10.022;2022-09-09T11:12:29;100832.66;;;21.42;100.00
20455;BME280;10386;54.314;10.022;2022-09-09T11:15:04;100835.50;;;21.26;100.00
20455;BME280;10386;54.314;10.022;2022-09-09T11:17:50;100837.34;;;21.80;100.00
20455;BME280;10386;54.314;10.022;2022-09-09T11:20:19;100848.97;;;21.68;100.00
20455;BME280;10386;54.314;10.022;2022-09-09T11:25:43;100854.47;;;22.06;100.00
20455;BME280;10386;54.314;10.022;2022-09-09T11:33:54;100870.16;;;21.83;100.00
20455;BME280;10386;54.314;10.022;2022-09-09T11:41:51;100905.31;;;21.51;100.00
20455;BME280;10386;54.314;10.022;2022-09-09T11:44:27;100902.22;;;22.00;100.00
20455;BME280;10386;54.314;10.022;2022-09-09T11:46:55;100883.19;;;21.75;100.00
20455;BME280;10386;54.314;10.022;2022-09-09T11:49:38;100873.66;;;21.77;100.00
20455;BME280;10386;54.314;10.022;2022-09-09T11:52:37;100868.09;;;21.31;100.00
20455;BME280;10386;54.314;10.022;2022-09-09T11:55:20;100895.16;;;21.98;100.00
20455;BME280;10386;54.314;10.022;2022-09-09T11:58:04;100864.34;;;22.39;100.00
20455;BME280;10386;54.314;10.022;2022-09-09T12:00:48;100844.91;;;22.47;100.00
20455;BME280;10386;54.314;10.022;2022-09-09T12:06:26;100831.28;;;22.82;100.00
20455;BME280;10386;54.314;10.022;2022-09-09T12:09:04;100860.38;;;22.03;100.00
20455;BME280;10386;54.314;10.022;2022-09-09T12:11:32;100884.53;;;21.00;100.00
20455;BME280;10386;54.314;10.022;2022-09-09T12:14:00;100920.59;;;20.83;100.00
20455;BME280;10386;54.314;10.022;2022-09-09T12:16:35;100943.88;;;21.12;100.00
20455;BME280;10386;54.314;10.022;2022-09-09T12:19:21;100932.78;;;21.52;100.00
20455;BME280;10386;54.314;10.022;2022-09-09T12:24:39;100937.66;;;21.18;100.00
20455;BME280;10386;54.314;10.022;2022-09-09T12:28:00;100956.56;;;21.85;100.00
20455;BME280;10386;54.314;10.022;2022-09-09T12:30:09;100915.13;;;22.16;100.00
20455;BME280;10386;54.314;10.022;2022-09-09T12:32:37;100882.00;;;22.38;100.00
20455;BME280;10386;54.314;10.022;2022-09-09T12:35:13;100897.25;;;22.26;100.00
20455;BME280;10386;54.314;10.022;2022-09-09T12:37:52;100891.16;;;21.70;100.00
20455;BME280;10386;54.314;10.022;2022-09-09T12:40:31;100912.25;;;21.47;100.00
20455;BME280;10386;54.314;10.022;2022-09-09T12:43:19;100925.22;;;21.38;100.00
20455;BME280;10386;54.314;10.022;2022-09-09T12:45:51;100934.38;;;22.01;100.00
20455;BME280;10386;54.314;10.022;2022-09-09T12:48:50;100918.16;;;22.59;100.00
20455;BME280;10386;54.314;10.022;2022-09-09T12:51:29;100873.72;;;22.60;100.00
20455;BME280;10386;54.314;10.022;2022-09-09T12:53:58;100867.53;;;22.73;100.00
20455;BME280;10386;54.314;10.022;2022-09-09T12:56:29;100864.53;;;22.30;100.00
20455;BME280;10386;54.314;10.022;2022-09-09T12:58:58;100861.59;;;22.61;100.00
20455;BME280;10386;54.314;10.022;2022-09-09T13:01:30;100856.28;;;22.74;100.00
20455;BME280;10386;54.314;10.022;2022-09-09T13:03:59;100839.44;;;22.61;100.00
20455;BME280;10386;54.314;10.022;2022-09-09T13:06:28;100847.38;;;22.64;100.00
20455;BME280;10386;54.314;10.022;2022-09-09T13:08:58;100837.44;;;22.55;100.00
20455;BME280;10386;54.314;10.022;2022-09-09T13:11:36;100848.97;;;22.59;100.00
20455;BME280;10386;54.314;10.022;2022-09-09T13:14:05;100840.44;;;22.46;100.00
20455;BME280;10386;54.314;10.022;2022-09-09T13:16:34;100851.13;;;22.71;100.00
20455;BME280;10386;54.314;10.022;2022-09-09T13:19:10;100857.13;;;22.30;100.00
20455;BME280;10386;54.314;10.022;2022-09-09T13:21:40;100856.75;;;22.33;100.00
20455;BME280;10386;54.314;10.022;2022-09-09T13:24:24;100855.69;;;22.42;100.00
20455;BME280;10386;54.314;10.022;2022-09-09T13:27:01;100849.41;;;22.85;100.00
20455;BME280;10386;54.314;10.022;2022-09-09T13:29:30;100826.00;;;22.28;100.00
20455;BME280;10386;54.314;10.022;2022-09-09T13:32:16;100858.94;;;21.85;100.00
20455;BME280;10386;54.314;10.022;2022-09-09T13:34:56;100900.97;;;21.72;100.00
20455;BME280;10386;54.314;10.022;2022-09-09T13:39:59;100932.00;;;23.04;100.00
20455;BME280;10386;54.314;10.022;2022-09-09T13:42:29;100872.53;;;22.77;100.00
20455;BME280;10386;54.314;10.022;2022-09-09T13:44:59;100861.09;;;22.95;100.00
20455;BME280;10386;54.314;10.022;2022-09-09T13:47:35;100842.31;;;22.68;100.00
20455;BME280;10386;54.314;10.022;2022-09-09T13:50:23;100838.94;;;22.95;100.00
20455;BME280;10386;54.314;10.022;2022-09-09T13:52:58;100832.44;;;22.51;100.00
20455;BME280;10386;54.314;10.022;2022-09-09T13:55:27;100876.66;;;22.59;100.00
20455;BME280;10386;54.314;10.022;2022-09-09T14:00:29;100851.63;;;23.12;100.00
20455;BME280;10386;54.314;10.022;2022-09-09T14:02:57;100859.81;;;22.83;100.00
20455;BME280;10386;54.314;10.022;2022-09-09T14:05:24;100872.38;;;22.93;100.00
20455;BME280;10386;54.314;10.022;2022-09-09T14:07:51;100851.03;;;23.02;100.00
20455;BME280;10386;54.314;10.022;2022-09-09T14:10:19;100852.59;;;23.19;100.00
20455;BME280;10386;54.314;10.022;2022-09-09T14:12:45;100851.25;;;23.15;100.00
20455;BME280;10386;54.314;10.022;2022-09-09T14:15:13;100839.31;;;22.77;100.00
20455;BME280;10386;54.314;10.022;2022-09-09T14:17:41;100847.03;;;22.82;100.00
20455;BME280;10386;54.314;10.022;2022-09-09T14:20:08;100849.84;;;22.59;100.00
20455;BME280;10386;54.314;10.022;2022-09-09T14:22:38;100867.97;;;22.40;100.00
20455;BME280;10386;54.314;10.022;2022-09-09T14:25:08;100875.69;;;21.83;100.00
20455;BME280;10386;54.314;10.022;2022-09-09T14:27:35;100921.41;;;22.02;100.00
20455;BME280;10386;54.314;10.022;2022-09-09T14:30:03;100911.50;;;22.45;100.00
20455;BME280;10386;54.314;10.022;2022-09-09T14:32:31;100891.69;;;22.79;100.00
20455;BME280;10386;54.314;10.022;2022-09-09T14:34:58;100858.56;;;22.71;100.00
20455;BME280;10386;54.314;10.022;2022-09-09T14:37:27;100844.63;;;22.64;100.00
20455;BME280;10386;54.314;10.022;2022-09-09T14:39:54;100842.72;;;23.02;100.00
20455;BME280;10386;54.314;10.022;2022-09-09T14:42:21;100854.53;;;22.96;100.00
20455;BME280;10386;54.314;10.022;2022-09-09T14:44:48;100864.22;;;23.14;100.00
20455;BME280;10386;54.314;10.022;2022-09-09T14:47:15;100842.03;;;23.00;100.00
20455;BME280;10386;54.314;10.022;2022-09-09T14:49:42;100849.50;;;22.77;100.00
20455;BME280;10386;54.314;10.022;2022-09-09T14:52:12;100877.00;;;22.78;100.00
20455;BME280;10386;54.314;10.022;2022-09-09T14:54:39;100896.63;;;22.46;100.00
20455;BME280;10386;54.314;10.022;2022-09-09T14:57:06;100901.88;;;22.03;100.00
20455;BME280;10386;54.314;10.022;2022-09-09T14:59:33;100927.84;;;21.94;100.00
20455;BME280;10386;54.314;10.022;2022-09-09T15:02:00;100937.34;;;21.29;100.00
20455;BME280;10386;54.314;10.022;2022-09-09T15:04:30;100954.59;;;21.07;100.00